createdAt,value
2022-11-27T00:03:28.709Z,9.45
2022-11-27T00:06:16.405Z,9.40
2022-11-27T00:09:03.968Z,8.78
2022-11-27T00:11:51.643Z,8.76
2022-11-27T00:14:39.186Z,8.04
2022-11-27T00:17:26.766Z,7.58
2022-11-27T00:20:14.362Z,7.43
2022-11-27T00:23:01.927Z,7.57
2022-11-27T00:25:49.502Z,7.98
2022-11-27T00:28:37.042Z,7.25
2022-11-27T00:31:24.645Z,7.64
2022-11-27T00:34:12.197Z,7.14
2022-11-27T00:36:59.762Z,7.54
2022-11-27T00:39:47.283Z,7.00
2022-11-27T00:42:34.868Z,6.13
2022-11-27T00:45:22.458Z,5.74
2022-11-27T00:48:10.040Z,5.65
2022-11-27T00:50:57.590Z,6.24
2022-11-27T00:53:45.165Z,5.85
2022-11-27T00:56:32.739Z,5.52
2022-11-27T00:59:20.300Z,5.24
2022-11-27T01:02:07.940Z,5.24
2022-11-27T01:04:55.587Z,4.93
2022-11-27T01:07:43.285Z,5.11
2022-11-27T01:10:30.897Z,6.02
2022-11-27T01:13:18.447Z,7.05
2022-11-27T01:16:06.277Z,6.94
2022-11-27T01:18:53.858Z,8.21
2022-11-27T01:21:41.600Z,9.78
2022-11-27T01:24:29.169Z,9.16
2022-11-27T01:27:16.802Z,8.82
2022-11-27T01:30:04.354Z,7.79
2022-11-27T01:32:51.906Z,7.14
2022-11-27T01:35:39.474Z,6.61
2022-11-27T01:38:27.068Z,6.68
2022-11-27T01:41:14.611Z,6.53
2022-11-27T01:44:02.176Z,6.08
2022-11-27T01:46:49.770Z,4.82
2022-11-27T01:49:37.382Z,4.15
2022-11-27T01:52:24.954Z,3.80
2022-11-27T01:55:12.506Z,3.82
2022-11-27T01:58:00.084Z,3.28
2022-11-27T02:00:47.658Z,3.20
2022-11-27T02:03:35.218Z,3.32
2022-11-27T02:06:22.808Z,2.87
2022-11-27T02:09:10.367Z,2.87
2022-11-27T02:11:57.953Z,2.89
2022-11-27T02:14:45.482Z,2.95
2022-11-27T02:17:33.066Z,2.82
2022-11-27T02:20:20.637Z,2.58
2022-11-27T02:23:08.199Z,2.55
2022-11-27T02:25:55.766Z,2.63
2022-11-27T02:28:43.337Z,2.59
2022-11-27T02:31:30.974Z,2.54
2022-11-27T02:34:18.590Z,2.60
2022-11-27T02:37:06.144Z,2.79
2022-11-27T02:39:53.745Z,2.57
2022-11-27T02:42:41.286Z,2.91
2022-11-27T02:45:28.860Z,2.90
2022-11-27T02:48:16.402Z,2.83
2022-11-27T02:51:03.986Z,2.80
2022-11-27T02:53:51.554Z,2.68
2022-11-27T02:56:39.122Z,2.73
2022-11-27T02:59:26.680Z,2.90
2022-11-27T03:02:14.320Z,2.83
2022-11-27T03:05:01.925Z,2.74
2022-11-27T03:07:49.588Z,2.74
2022-11-27T03:10:37.227Z,2.81
2022-11-27T03:13:24.783Z,2.61
2022-11-27T03:16:12.381Z,2.69
2022-11-27T03:19:00.101Z,2.92
2022-11-27T03:21:47.643Z,3.02
2022-11-27T03:24:35.224Z,2.97
2022-11-27T03:27:22.790Z,2.75
2022-11-27T03:30:10.355Z,2.97
2022-11-27T03:32:57.910Z,2.88
2022-11-27T03:35:45.458Z,2.82
2022-11-27T03:38:33.029Z,3.09
2022-11-27T03:41:20.574Z,3.09
2022-11-27T03:44:08.144Z,3.06
2022-11-27T03:46:55.737Z,3.27
2022-11-27T03:49:43.340Z,3.61
2022-11-27T03:52:30.940Z,3.85
2022-11-27T03:55:18.505Z,4.39
2022-11-27T03:58:06.083Z,3.31
2022-11-27T04:00:53.645Z,3.38
2022-11-27T04:03:41.252Z,3.25
2022-11-27T04:06:28.898Z,3.76
2022-11-27T04:09:16.474Z,3.86
2022-11-27T04:12:04.037Z,5.09
2022-11-27T04:15:05.273Z,5.87
2022-11-27T04:17:52.959Z,7.86
2022-11-27T04:20:40.533Z,8.63
2022-11-27T04:23:28.110Z,8.34
2022-11-27T04:26:15.766Z,8.34
2022-11-27T04:29:05.297Z,8.41
2022-11-27T04:31:52.903Z,8.06
2022-11-27T04:34:40.716Z,7.25
2022-11-27T04:37:28.506Z,7.14
2022-11-27T04:40:16.068Z,6.64
2022-11-27T04:43:03.637Z,5.77
2022-11-27T04:45:51.178Z,6.02
2022-11-27T04:48:38.738Z,6.08
2022-11-27T04:51:26.286Z,6.24
2022-11-27T04:54:13.893Z,6.02
2022-11-27T04:57:01.445Z,6.48
2022-11-27T04:59:49.006Z,8.03
2022-11-27T05:02:36.598Z,9.23
2022-11-27T05:05:24.197Z,11.08
2022-11-27T05:08:11.775Z,12.05
2022-11-27T05:10:59.388Z,12.69
2022-11-27T05:13:47.013Z,12.99
2022-11-27T05:16:34.646Z,15.43
2022-11-27T05:19:22.243Z,14.82
2022-11-27T05:22:09.871Z,15.46
2022-11-27T05:24:57.439Z,15.78
2022-11-27T05:27:45.007Z,15.00
2022-11-27T05:30:32.597Z,14.80
2022-11-27T05:33:20.157Z,14.00
2022-11-27T05:36:07.706Z,15.19
2022-11-27T05:38:55.314Z,15.41
2022-11-27T05:41:42.888Z,16.14
2022-11-27T05:44:30.502Z,16.51
2022-11-27T05:47:18.098Z,17.24
2022-11-27T05:50:05.666Z,17.39
2022-11-27T05:52:53.238Z,18.87
2022-11-27T05:55:40.914Z,18.04
2022-11-27T05:58:30.465Z,17.04
2022-11-27T06:01:18.055Z,16.52
2022-11-27T06:04:05.633Z,18.04
2022-11-27T06:06:53.238Z,17.53
2022-11-27T06:09:40.832Z,18.25
2022-11-27T06:12:28.414Z,17.99
2022-11-27T06:15:16.006Z,17.77
2022-11-27T06:18:03.594Z,17.45
2022-11-27T06:20:53.085Z,17.80
2022-11-27T06:23:40.817Z,17.78
2022-11-27T06:26:28.398Z,17.29
2022-11-27T06:29:15.983Z,16.62
2022-11-27T06:32:03.709Z,16.79
2022-11-27T06:34:51.311Z,16.83
2022-11-27T06:37:38.933Z,17.33
2022-11-27T06:40:26.497Z,17.46
2022-11-27T06:43:14.080Z,16.83
2022-11-27T06:46:01.657Z,16.56
2022-11-27T06:48:49.274Z,17.58
2022-11-27T06:51:36.850Z,17.13
2022-11-27T06:54:24.412Z,16.57
2022-11-27T06:57:11.999Z,16.93
2022-11-27T06:59:59.566Z,16.48
2022-11-27T07:02:47.161Z,16.10
2022-11-27T07:05:34.752Z,16.02
2022-11-27T07:08:22.345Z,16.63
2022-11-27T07:11:09.915Z,17.04
2022-11-27T07:13:57.527Z,16.63
2022-11-27T07:16:45.132Z,16.69
2022-11-27T07:19:32.756Z,17.00
2022-11-27T07:22:20.328Z,17.95
2022-11-27T07:25:07.939Z,16.83
2022-11-27T07:27:55.537Z,15.82
2022-11-27T07:30:43.125Z,15.42
2022-11-27T07:33:30.706Z,15.55
2022-11-27T07:36:18.308Z,15.67
2022-11-27T07:39:05.977Z,15.17
2022-11-27T07:41:53.985Z,15.45
2022-11-27T07:44:45.896Z,15.90
2022-11-27T07:47:33.470Z,14.32
2022-11-27T07:50:21.060Z,15.68
2022-11-27T07:53:08.628Z,15.83
2022-11-27T07:55:56.276Z,16.25
2022-11-27T07:58:43.874Z,15.95
2022-11-27T08:01:31.556Z,15.85
2022-11-27T08:04:19.201Z,15.47
2022-11-27T08:07:06.827Z,14.61
2022-11-27T08:09:54.390Z,14.62
2022-11-27T08:12:41.969Z,15.06
2022-11-27T08:15:29.543Z,15.55
2022-11-27T08:18:17.153Z,14.70
2022-11-27T08:21:04.716Z,14.95
2022-11-27T08:23:52.305Z,14.84
2022-11-27T08:26:39.887Z,15.27
2022-11-27T08:29:32.607Z,15.24
2022-11-27T08:32:21.447Z,14.13
2022-11-27T08:35:09.034Z,13.80
2022-11-27T08:37:56.823Z,13.78
2022-11-27T08:40:44.407Z,14.54
2022-11-27T08:43:31.973Z,14.74
2022-11-27T08:46:19.641Z,14.12
2022-11-27T08:49:07.282Z,13.85
2022-11-27T08:51:54.857Z,13.73
2022-11-27T08:54:44.443Z,13.34
2022-11-27T08:57:32.014Z,13.42
2022-11-27T09:00:23.639Z,15.04
2022-11-27T09:03:14.037Z,15.31
2022-11-27T09:06:03.613Z,15.33
2022-11-27T09:08:51.185Z,17.32
2022-11-27T09:11:38.780Z,19.20
2022-11-27T09:14:26.355Z,19.46
2022-11-27T09:17:13.950Z,20.69
2022-11-27T09:20:01.507Z,20.60
2022-11-27T09:22:49.089Z,17.50
2022-11-27T09:25:36.710Z,17.60
2022-11-27T09:28:28.210Z,15.87
2022-11-27T09:31:18.839Z,15.60
2022-11-27T09:34:06.418Z,15.42
2022-11-27T09:36:53.989Z,15.13
2022-11-27T09:39:41.584Z,14.17
2022-11-27T09:42:29.182Z,24.37
2022-11-27T09:45:17.248Z,28.51
2022-11-27T09:48:04.863Z,27.56
2022-11-27T09:50:52.455Z,21.89
2022-11-27T09:53:40.047Z,10.22
2022-11-27T09:56:27.579Z,8.54
2022-11-27T09:59:15.187Z,8.63
2022-11-27T10:02:02.851Z,8.44
2022-11-27T10:05:12.895Z,8.06
2022-11-27T10:08:03.300Z,6.97
2022-11-27T10:10:53.804Z,6.48
2022-11-27T10:13:41.392Z,7.28
2022-11-27T10:16:29.046Z,6.33
2022-11-27T10:19:16.676Z,5.98
2022-11-27T10:22:04.243Z,5.47
2022-11-27T10:24:51.812Z,5.32
2022-11-27T10:27:39.393Z,4.85
2022-11-27T10:30:26.966Z,5.22
2022-11-27T10:33:14.575Z,5.17
2022-11-27T10:36:02.271Z,5.28
2022-11-27T10:38:49.871Z,4.86
2022-11-27T10:41:52.662Z,4.30
2022-11-27T10:44:40.542Z,4.87
2022-11-27T10:47:32.248Z,5.64
2022-11-27T10:50:21.161Z,6.99
2022-11-27T10:53:08.726Z,8.86
2022-11-27T10:55:56.324Z,9.65
2022-11-27T10:58:43.926Z,9.84
2022-11-27T11:01:31.590Z,9.42
2022-11-27T11:04:36.986Z,9.08
2022-11-27T11:07:25.464Z,9.16
2022-11-27T11:10:13.050Z,9.35
2022-11-27T11:13:00.617Z,10.56
2022-11-27T11:15:51.623Z,10.60
2022-11-27T11:18:39.581Z,10.66
2022-11-27T11:21:27.152Z,9.96
2022-11-27T11:24:14.716Z,10.31
2022-11-27T11:27:02.284Z,9.81
2022-11-27T11:29:49.881Z,9.29
2022-11-27T11:32:37.430Z,8.96
2022-11-27T11:35:24.990Z,8.17
2022-11-27T11:38:12.586Z,9.12
2022-11-27T11:41:00.161Z,8.37
2022-11-27T11:43:47.712Z,7.88
2022-11-27T11:46:37.363Z,7.47
2022-11-27T11:49:24.919Z,7.27
2022-11-27T11:52:12.477Z,7.74
2022-11-27T11:55:00.051Z,7.12
2022-11-27T11:57:47.642Z,8.44
2022-11-27T12:00:48.683Z,7.56
2022-11-27T12:03:42.714Z,8.75
2022-11-27T12:06:30.313Z,11.14
2022-11-27T12:09:17.961Z,11.06
2022-11-27T12:12:05.497Z,8.33
2022-11-27T12:14:53.065Z,7.39
2022-11-27T12:17:40.630Z,6.61
2022-11-27T12:20:28.202Z,10.08
2022-11-27T12:23:15.742Z,13.30
2022-11-27T12:26:03.335Z,14.21
2022-11-27T12:28:55.930Z,15.46
2022-11-27T12:31:46.517Z,15.62
2022-11-27T12:34:34.089Z,14.97
2022-11-27T12:37:21.649Z,11.69
2022-11-27T12:40:09.208Z,10.46
2022-11-27T12:42:56.807Z,10.44
2022-11-27T12:45:44.398Z,10.42
2022-11-27T12:48:31.992Z,10.45
2022-11-27T12:51:19.680Z,10.31
2022-11-27T12:54:09.225Z,9.96
2022-11-27T12:56:56.801Z,9.30
2022-11-27T12:59:44.385Z,9.64
2022-11-27T13:02:32.086Z,9.24
2022-11-27T13:05:19.700Z,9.41
2022-11-27T13:08:07.255Z,8.79
2022-11-27T13:10:54.818Z,8.72
2022-11-27T13:13:42.379Z,9.12
2022-11-27T13:16:29.984Z,9.23
2022-11-27T13:19:17.562Z,9.14
2022-11-27T13:22:05.118Z,8.81
2022-11-27T13:24:52.682Z,8.83
2022-11-27T13:27:40.209Z,8.55
2022-11-27T13:30:27.786Z,8.29
2022-11-27T13:33:15.385Z,8.42
2022-11-27T13:36:03.075Z,8.41
2022-11-27T13:38:30.623Z,7.73
2022-11-27T13:40:58.005Z,8.12
2022-11-27T13:43:25.398Z,7.81
2022-11-27T13:45:52.805Z,7.91
2022-11-27T13:48:20.230Z,7.42
2022-11-27T13:50:47.631Z,7.72
2022-11-27T13:53:15.030Z,7.90
2022-11-27T13:55:42.425Z,7.53
2022-11-27T13:58:09.823Z,8.17
2022-11-27T14:00:37.228Z,7.08
2022-11-27T14:03:04.585Z,3.50
2022-11-27T14:05:32.016Z,1.28
2022-11-27T14:07:59.477Z,1.29
2022-11-27T14:10:26.920Z,1.47
2022-11-27T14:12:54.398Z,1.54
2022-11-27T14:15:21.762Z,3.03
2022-11-27T14:17:49.156Z,7.21
2022-11-27T14:20:16.559Z,9.74
2022-11-27T14:23:07.182Z,9.84
2022-11-27T14:25:31.292Z,16.54
2022-11-27T14:27:58.674Z,12.41
2022-11-27T14:30:26.036Z,11.60
2022-11-27T14:32:53.443Z,11.99
2022-11-27T14:35:20.825Z,12.76
2022-11-27T14:37:48.212Z,12.99
2022-11-27T14:40:15.650Z,13.61
2022-11-27T14:42:43.128Z,14.02
2022-11-27T14:45:10.530Z,13.38
2022-11-27T14:47:37.902Z,14.30
2022-11-27T14:50:05.331Z,12.31
2022-11-27T14:52:32.717Z,11.64
2022-11-27T14:55:00.120Z,11.31
2022-11-27T14:57:27.496Z,11.40
2022-11-27T14:59:54.895Z,9.76
2022-11-27T15:02:27.588Z,6.88
2022-11-27T15:04:56.578Z,5.08
2022-11-27T15:07:24.002Z,3.97
2022-11-27T15:09:51.434Z,3.10
2022-11-27T15:12:18.826Z,3.31
2022-11-27T15:14:46.212Z,3.47
2022-11-27T15:17:13.579Z,3.28
2022-11-27T15:19:41.267Z,2.27
2022-11-27T15:22:08.885Z,2.07
2022-11-27T15:24:36.260Z,2.23
2022-11-27T15:27:03.620Z,5.66
2022-11-27T15:29:31.068Z,8.30
2022-11-27T15:31:58.472Z,8.55
2022-11-27T15:34:25.864Z,9.74
2022-11-27T15:36:53.247Z,10.29
2022-11-27T15:39:20.638Z,10.43
2022-11-27T15:41:48.043Z,10.61
2022-11-27T15:44:15.403Z,10.23
2022-11-27T15:46:42.782Z,10.02
2022-11-27T15:49:10.217Z,10.37
2022-11-27T15:51:37.645Z,10.61
2022-11-27T15:54:05.032Z,11.11
2022-11-27T15:56:32.403Z,11.19
2022-11-27T15:58:59.775Z,10.97
2022-11-27T16:01:27.266Z,11.11
2022-11-27T16:03:54.654Z,11.01
2022-11-27T16:06:22.030Z,10.73
2022-11-27T16:08:49.511Z,10.99
2022-11-27T16:11:16.875Z,10.98
2022-11-27T16:13:44.252Z,10.93
2022-11-27T16:16:11.674Z,11.04
2022-11-27T16:18:39.092Z,10.84
2022-11-27T16:21:06.485Z,9.90
2022-11-27T16:23:33.858Z,8.30
2022-11-27T16:26:01.230Z,7.52
2022-11-27T16:28:28.597Z,6.29
2022-11-27T16:30:56.019Z,3.59
2022-11-27T16:33:23.423Z,3.54
2022-11-27T16:35:50.773Z,3.35
2022-11-27T16:38:18.144Z,3.40
2022-11-27T16:40:45.579Z,3.24
2022-11-27T16:43:12.956Z,2.69
2022-11-27T16:45:40.468Z,2.47
2022-11-27T16:48:07.914Z,2.30
2022-11-27T16:50:35.293Z,5.45
2022-11-27T16:53:02.681Z,7.90
2022-11-27T16:55:30.049Z,10.74
2022-11-27T16:57:57.462Z,13.33
2022-11-27T17:00:24.870Z,17.04
2022-11-27T17:02:52.285Z,9.77
2022-11-27T17:05:19.653Z,12.49
2022-11-27T17:07:47.090Z,5.79
2022-11-27T17:10:14.554Z,2.34
2022-11-27T17:12:41.979Z,1.93
2022-11-27T17:15:09.349Z,1.84
2022-11-27T17:17:39.949Z,1.60
2022-11-27T17:20:07.726Z,1.65
2022-11-27T17:22:35.101Z,1.77
2022-11-27T17:25:02.465Z,1.71
2022-11-27T17:27:29.946Z,2.25
2022-11-27T17:29:57.380Z,2.40
2022-11-27T17:32:24.732Z,2.03
2022-11-27T17:34:52.099Z,1.88
2022-11-27T17:37:19.455Z,1.79
2022-11-27T17:39:46.829Z,2.10
2022-11-27T17:42:18.153Z,2.22
2022-11-27T17:44:48.506Z,2.12
2022-11-27T17:47:15.925Z,2.68
2022-11-27T17:49:43.554Z,2.78
2022-11-27T17:52:11.150Z,2.74
2022-11-27T17:54:38.501Z,2.68
2022-11-27T17:57:05.885Z,2.36
2022-11-27T17:59:33.246Z,13.56
2022-11-27T18:02:00.686Z,11.61
2022-11-27T18:04:28.191Z,2.79
2022-11-27T18:06:55.560Z,2.19
2022-11-27T18:09:22.937Z,2.20
2022-11-27T18:11:50.303Z,1.90
2022-11-27T18:14:17.670Z,2.14
2022-11-27T18:16:45.145Z,2.16
2022-11-27T18:19:12.550Z,2.08
2022-11-27T18:21:39.943Z,7.32
2022-11-27T18:24:24.440Z,15.75
2022-11-27T18:27:07.647Z,12.81
2022-11-27T18:29:35.827Z,11.77
2022-11-27T18:32:03.263Z,18.67
2022-11-27T18:34:30.693Z,29.10
2022-11-27T18:36:58.130Z,22.09
2022-11-27T18:39:25.524Z,18.39
2022-11-27T18:41:52.950Z,12.81
2022-11-27T18:44:20.329Z,12.76
2022-11-27T18:46:47.717Z,10.37
2022-11-27T18:49:15.143Z,9.16
2022-11-27T18:51:42.538Z,8.30
2022-11-27T18:54:09.910Z,8.43
2022-11-27T18:56:37.307Z,7.00
2022-11-27T18:59:04.658Z,6.41
2022-11-27T19:01:36.734Z,5.48
2022-11-27T19:04:05.717Z,4.74
2022-11-27T19:06:33.102Z,3.83
2022-11-27T19:09:00.493Z,3.63
2022-11-27T19:11:27.874Z,2.87
2022-11-27T19:13:55.251Z,2.94
2022-11-27T19:16:22.705Z,2.35
2022-11-27T19:18:50.137Z,2.22
2022-11-27T19:21:17.528Z,2.36
2022-11-27T19:23:44.905Z,1.84
2022-11-27T19:26:12.315Z,1.95
2022-11-27T19:28:39.710Z,1.71
2022-11-27T19:31:07.106Z,1.77
2022-11-27T19:33:34.481Z,1.70
2022-11-27T19:36:01.835Z,1.58
2022-11-27T19:38:29.218Z,1.76
2022-11-27T19:40:57.754Z,1.89
2022-11-27T19:43:25.130Z,3.40
2022-11-27T19:45:52.566Z,9.27
2022-11-27T19:48:23.128Z,6.50
2022-11-27T19:50:50.839Z,4.14
2022-11-27T19:53:18.241Z,2.36
2022-11-27T19:55:45.616Z,1.96
2022-11-27T19:58:12.990Z,1.76
2022-11-27T20:00:40.461Z,1.82
2022-11-27T20:03:07.874Z,1.65
2022-11-27T20:05:35.227Z,1.91
2022-11-27T20:08:02.651Z,1.83
2022-11-27T20:10:30.134Z,2.04
2022-11-27T20:12:57.519Z,1.84
2022-11-27T20:15:24.898Z,1.95
2022-11-27T20:17:52.295Z,2.08
2022-11-27T20:20:19.646Z,2.34
2022-11-27T20:22:47.004Z,2.13
2022-11-27T20:25:21.412Z,2.06
2022-11-27T20:27:48.817Z,2.04
2022-11-27T20:30:16.196Z,2.14
2022-11-27T20:32:43.578Z,2.34
2022-11-27T20:35:29.722Z,2.34
2022-11-27T20:38:17.304Z,2.29
2022-11-27T20:41:04.875Z,2.30
2022-11-27T20:43:52.441Z,2.34
2022-11-27T20:46:40.026Z,2.26
2022-11-27T20:49:27.590Z,2.30
2022-11-27T20:52:15.184Z,2.41
2022-11-27T20:55:02.748Z,2.29
2022-11-27T20:57:54.616Z,2.28
2022-11-27T21:00:42.483Z,2.53
2022-11-27T21:03:30.148Z,2.43
2022-11-27T21:06:17.711Z,2.43
2022-11-27T21:09:05.279Z,2.72
2022-11-27T21:11:52.848Z,2.58
2022-11-27T21:14:40.437Z,2.40
2022-11-27T21:17:27.992Z,2.45
2022-11-27T21:20:15.593Z,2.47
2022-11-27T21:23:03.145Z,2.43
2022-11-27T21:25:50.711Z,2.85
2022-11-27T21:28:38.277Z,12.89
2022-11-27T21:31:25.947Z,14.93
2022-11-27T21:34:13.535Z,27.53
2022-11-27T21:37:01.107Z,16.02
2022-11-27T21:39:48.673Z,2.53
2022-11-27T21:42:40.306Z,2.97
2022-11-27T21:45:30.727Z,3.19
2022-11-27T21:48:18.287Z,3.21
2022-11-27T21:51:05.854Z,2.99
2022-11-27T21:53:53.381Z,3.01
2022-11-27T21:56:40.944Z,2.91
2022-11-27T21:59:28.516Z,3.04
2022-11-27T22:02:16.155Z,3.12
2022-11-27T22:05:03.753Z,2.77
2022-11-27T22:07:51.418Z,2.84
2022-11-27T22:10:39.007Z,3.14
2022-11-27T22:13:26.565Z,2.97
2022-11-27T22:16:14.177Z,3.31
2022-11-27T22:19:01.764Z,3.48
2022-11-27T22:21:49.374Z,3.82
2022-11-27T22:24:36.942Z,3.78
2022-11-27T22:27:24.511Z,3.61
2022-11-27T22:30:12.083Z,3.69
2022-11-27T22:32:59.610Z,3.69
2022-11-27T22:35:47.205Z,3.66
2022-11-27T22:38:34.762Z,3.40
2022-11-27T22:41:22.350Z,3.67
2022-11-27T22:44:09.939Z,3.73
2022-11-27T22:46:57.521Z,4.07
2022-11-27T22:49:45.085Z,3.75
2022-11-27T22:52:32.668Z,4.14
2022-11-27T22:55:20.224Z,4.24
2022-11-27T22:58:09.775Z,4.13
2022-11-27T23:00:57.333Z,4.22
2022-11-27T23:03:44.965Z,4.44
2022-11-27T23:06:32.575Z,4.55
2022-11-27T23:09:20.144Z,4.62
2022-11-27T23:12:07.731Z,4.82
2022-11-27T23:14:55.295Z,4.66
2022-11-27T23:17:42.914Z,4.94
2022-11-27T23:20:30.502Z,5.27
2022-11-27T23:23:18.052Z,5.08
2022-11-27T23:26:05.629Z,5.26
2022-11-27T23:28:53.183Z,5.48
2022-11-27T23:31:40.867Z,5.78
2022-11-27T23:34:28.515Z,5.87
2022-11-27T23:37:16.129Z,5.86
2022-11-27T23:40:03.681Z,5.72
2022-11-27T23:42:51.255Z,6.24
2022-11-27T23:45:38.847Z,5.93
2022-11-27T23:48:26.406Z,6.55
2022-11-27T23:51:13.974Z,6.67
2022-11-27T23:54:01.519Z,6.75
2022-11-27T23:56:49.099Z,6.73
2022-11-27T23:59:36.673Z,6.48
